Time;durP1;ratioP1;P1;durP2;ratioP2;P2;SDS_P1;SDS_P2;PMS_P1;PMS_P2;Temp;Humidity;BMP_temperature;BMP_pressure;BME280_temperature;BME280_humidity;BME280_pressure;Samples;Min_cycle;Max_cycle;Signal;HPM_P1;HPM_P2
2023/10/14 00:02:20;;;;;;;2.00;1.00;;;;;;;7.65;100.00;100476.30;105141;1254;72779;-50
2023/10/14 00:04:42;;;;;;;3.70;1.00;;;;;;;7.67;100.00;100478.91;104817;1259;68004;-48
2023/10/14 00:07:11;;;;;;;2.00;0.90;;;;;;;7.70;100.00;100478.33;105255;1260;71453;-49
2023/10/14 00:09:49;;;;;;;2.90;1.00;;;;;;;7.73;100.00;100476.83;105302;1254;60562;-51
2023/10/14 00:12:17;;;;;;;3.50;1.30;;;;;;;7.77;100.00;100477.23;104810;1258;61184;-48
2023/10/14 00:14:44;;;;;;;2.70;0.90;;;;;;;7.81;100.00;100472.13;105249;1256;72788;-49
2023/10/14 00:17:18;;;;;;;3.20;1.60;;;;;;;7.86;100.00;100475.93;104904;1254;68923;-48
2023/10/14 00:19:55;;;;;;;1.50;1.00;;;;;;;7.89;100.00;100471.76;104950;1253;72767;-48
2023/10/14 00:22:26;;;;;;;1.80;0.90;;;;;;;7.92;100.00;100468.27;104871;1257;60472;-49
2023/10/14 00:24:54;;;;;;;1.20;0.70;;;;;;;7.94;100.00;100475.36;105035;1256;60434;-47
2023/10/14 00:27:23;;;;;;;2.90;0.90;;;;;;;7.97;100.00;100477.25;104901;1260;73935;-47
2023/10/14 00:30:06;;;;;;;2.30;1.00;;;;;;;7.99;100.00;100478.80;106136;1254;66862;-49
2023/10/14 00:32:34;;;;;;;2.30;1.10;;;;;;;8.01;100.00;100473.91;104920;1254;71601;-47
2023/10/14 00:35:06;;;;;;;2.90;0.90;;;;;;;8.04;100.00;100468.49;104693;1254;60542;-51
2023/10/14 00:37:34;;;;;;;1.00;0.70;;;;;;;8.04;100.00;100466.16;105050;1255;60335;-48
2023/10/14 00:40:21;;;;;;;1.20;0.80;;;;;;;8.06;100.00;100464.33;104883;1253;76070;-47
2023/10/14 00:42:55;;;;;;;3.30;1.00;;;;;;;8.09;100.00;100458.69;105123;1255;67893;-48
2023/10/14 00:45:23;;;;;;;2.10;0.80;;;;;;;8.11;100.00;100457.38;106257;1257;71465;-47
2023/10/14 00:47:50;;;;;;;2.70;1.10;;;;;;;8.12;100.00;100457.55;104883;1254;60824;-47
2023/10/14 00:50:36;;;;;;;1.60;0.80;;;;;;;8.13;100.00;100453.59;104815;1259;60429;-48
2023/10/14 00:53:06;;;;;;;1.80;0.70;;;;;;;8.14;100.00;100450.52;104827;1254;72707;-49
2023/10/14 00:55:52;;;;;;;1.80;0.80;;;;;;;8.15;100.00;100448.55;104858;1254;66863;-47
2023/10/14 00:58:28;;;;;;;2.60;0.90;;;;;;;8.16;100.00;100448.67;104857;1254;71472;-47
2023/10/14 01:00:58;;;;;;;1.90;1.00;;;;;;;8.17;100.00;100441.31;104881;1254;62077;-49
2023/10/14 01:03:27;;;;;;;1.30;0.80;;;;;;;8.18;100.00;100430.73;108969;1254;58623;-49
2023/10/14 01:05:57;;;;;;;1.70;0.90;;;;;;;8.20;100.00;100433.55;109070;1254;73885;-49
2023/10/14 01:08:25;;;;;;;3.40;1.00;;;;;;;8.23;100.00;100431.15;107218;1254;66492;-48
2023/10/14 01:10:52;;;;;;;5.00;1.10;;;;;;;8.26;100.00;100423.54;104716;1258;71792;-51
2023/10/14 01:13:22;;;;;;;1.80;0.90;;;;;;;8.30;100.00;100418.07;104807;1254;62663;-49
2023/10/14 01:16:08;;;;;;;1.40;0.80;;;;;;;8.35;100.00;100421.17;104875;1254;60479;-48
2023/10/14 01:18:38;;;;;;;2.30;1.00;;;;;;;8.42;100.00;100420.45;109133;1254;72591;-49
2023/10/14 01:21:06;;;;;;;3.90;0.90;;;;;;;8.48;100.00;100416.33;109027;1254;68900;-50
2023/10/14 01:23:38;;;;;;;2.50;1.30;;;;;;;8.56;100.00;100411.09;109075;1254;71434;-50
2023/10/14 01:26:06;;;;;;;3.50;1.70;;;;;;;8.63;100.00;100404.08;109131;1254;61723;-48
2023/10/14 01:28:33;;;;;;;1.70;1.20;;;;;;;8.70;100.00;100401.17;109047;1254;60077;-50
2023/10/14 01:31:32;;;;;;;4.50;1.30;;;;;;;8.76;100.00;100401.34;109120;1253;72951;-48
2023/10/14 01:33:57;;;;;;;2.20;1.30;;;;;;;8.84;100.00;100402.17;109091;1254;68512;-49
2023/10/14 01:36:27;;;;;;;2.20;1.60;;;;;;;8.92;100.00;100402.11;108964;1253;71260;-51
2023/10/14 01:38:58;;;;;;;2.10;1.30;;;;;;;8.98;100.00;100397.79;109048;1253;62141;-51
2023/10/14 01:41:29;;;;;;;1.80;1.20;;;;;;;9.05;100.00;100399.02;109047;1253;60067;-51
2023/10/14 01:44:03;;;;;;;4.00;1.50;;;;;;;9.11;100.00;100404.91;109033;1254;74264;-50
2023/10/14 01:46:39;;;;;;;3.00;1.20;;;;;;;9.17;100.00;100405.96;109055;1253;66465;-49
2023/10/14 01:49:10;;;;;;;2.50;1.20;;;;;;;9.23;100.00;100398.97;109025;1254;71504;-51
2023/10/14 01:51:38;;;;;;;1.30;1.00;;;;;;;9.30;100.00;100392.80;109112;1257;58848;-51
2023/10/14 01:54:09;;;;;;;1.50;1.10;;;;;;;9.36;100.00;100385.11;109025;1254;59105;-49
2023/10/14 01:56:37;;;;;;;2.40;1.10;;;;;;;9.41;100.00;100381.89;108917;1254;74290;-49
2023/10/14 01:59:05;;;;;;;1.40;1.30;;;;;;;9.46;100.00;100381.50;109096;1254;68852;-49
2023/10/14 02:01:35;;;;;;;3.00;1.20;;;;;;;9.51;100.00;100380.13;109105;1253;71415;-50
2023/10/14 02:04:03;;;;;;;1.60;1.00;;;;;;;9.55;100.00;100379.98;105632;1258;60562;-49
2023/10/14 02:06:31;;;;;;;2.20;1.20;;;;;;;9.59;100.00;100381.10;106994;1259;59240;-50
2023/10/14 02:09:00;;;;;;;1.80;1.20;;;;;;;9.62;100.00;100380.25;106126;1256;72635;-49
2023/10/14 02:11:33;;;;;;;3.60;1.30;;;;;;;9.64;100.00;100380.91;109155;1254;66850;-49
2023/10/14 02:14:06;;;;;;;1.70;1.00;;;;;;;9.66;100.00;100385.48;104953;1260;72174;-50
2023/10/14 02:16:41;;;;;;;2.70;1.20;;;;;;;9.68;100.00;100386.52;109011;1254;60319;-48
2023/10/14 02:19:20;;;;;;;3.70;1.40;;;;;;;9.72;100.00;100383.15;106474;1254;60538;-49
2023/10/14 02:21:54;;;;;;;3.70;1.30;;;;;;;9.75;100.00;100382.50;104919;1254;72606;-50
2023/10/14 02:24:23;;;;;;;2.20;1.30;;;;;;;9.79;100.00;100377.72;109089;1253;66754;-50
2023/10/14 02:26:52;;;;;;;2.20;1.10;;;;;;;9.82;100.00;100375.98;107885;1257;72809;-49
2023/10/14 02:29:22;;;;;;;4.00;1.60;;;;;;;9.84;100.00;100377.52;105632;1254;60562;-47
2023/10/14 02:31:51;;;;;;;1.90;1.40;;;;;;;9.88;100.00;100377.20;105037;1254;60640;-48
2023/10/14 02:34:18;;;;;;;3.00;1.70;;;;;;;9.91;100.00;100379.44;108976;1258;72640;-49
2023/10/14 02:36:49;;;;;;;2.80;1.70;;;;;;;9.94;100.00;100379.73;109027;1254;66323;-50
2023/10/14 02:39:22;;;;;;;2.30;1.50;;;;;;;9.95;100.00;100376.07;107588;1254;72718;-48
2023/10/14 02:44:46;;;;;;;4.10;2.10;;;;;;;9.98;100.00;100374.35;107865;1254;60685;-49
2023/10/14 02:47:13;;;;;;;4.20;1.60;;;;;;;9.98;100.00;100369.48;106898;1259;72597;-48
2023/10/14 02:49:41;;;;;;;1.70;1.50;;;;;;;9.99;100.00;100364.09;104614;1260;67282;-49
2023/10/14 02:52:11;;;;;;;1.40;1.30;;;;;;;10.00;100.00;100361.55;104808;1258;71453;-48
2023/10/14 02:54:41;;;;;;;2.30;1.50;;;;;;;10.00;100.00;100356.70;109089;1255;64134;-48
2023/10/14 02:59:44;;;;;;;1.60;1.50;;;;;;;10.02;100.00;100349.46;104778;1255;73914;-49
2023/10/14 03:08:10;;;;;;;2.40;1.70;;;;;;;10.07;100.00;100340.48;106114;1260;60444;-48
2023/10/14 03:12:39;;;;;;;1.30;1.10;;;;;;;10.11;100.00;100333.90;104994;1259;74474;-49
2023/10/14 03:15:19;;;;;;;2.60;1.60;;;;;;;10.12;100.00;100328.80;105397;1258;67854;-49
2023/10/14 03:17:56;;;;;;;2.20;1.60;;;;;;;10.14;100.00;100322.82;104804;1258;72741;-49
2023/10/14 03:23:19;;;;;;;5.70;1.40;;;;;;;10.14;100.00;100309.73;104884;1254;60370;-49
2023/10/14 03:25:49;;;;;;;2.80;1.40;;;;;;;10.13;100.00;100305.98;105930;1254;72879;-48
2023/10/14 03:28:20;;;;;;;2.60;1.70;;;;;;;10.11;100.00;100305.89;105242;1257;67410;-48
2023/10/14 03:30:56;;;;;;;2.40;1.60;;;;;;;10.09;100.00;100298.45;106854;1255;71424;-49
2023/10/14 03:33:27;;;;;;;3.10;2.00;;;;;;;10.07;100.00;100297.80;105793;1254;60495;-49
2023/10/14 03:36:03;;;;;;;2.10;1.80;;;;;;;10.05;100.00;100302.16;106932;1254;60064;-50
2023/10/14 03:44:23;;;;;;;;;;;;;;;10.03;100.00;100297.43;106697;1258;71407;-49
2023/10/14 03:46:35;;;;;;;4.10;1.50;;;;;;;10.03;100.00;100295.81;104617;1257;63389;-49
2023/10/14 03:49:06;;;;;;;3.00;1.20;;;;;;;10.04;100.00;100296.46;106380;1259;60446;-51
2023/10/14 03:51:38;;;;;;;2.50;1.30;;;;;;;10.06;100.00;100294.26;104910;1257;74246;-49
2023/10/14 03:54:09;;;;;;;3.80;1.80;;;;;;;10.08;100.00;100299.04;104845;1259;66577;-49
2023/10/14 03:56:37;;;;;;;1.70;1.30;;;;;;;10.09;100.00;100299.52;104772;1257;70786;-48
2023/10/14 03:59:05;;;;;;;2.90;1.20;;;;;;;10.10;100.00;100298.04;104782;1257;60444;-49
2023/10/14 04:04:20;;;;;;;2.60;1.70;;;;;;;10.11;100.00;100295.35;108985;1254;73896;-50
2023/10/14 04:07:12;;;;;;;1.20;1.00;;;;;;;10.11;100.00;100296.25;107134;1254;66440;-46
2023/10/14 04:09:51;;;;;;;3.90;1.10;;;;;;;10.11;100.00;100293.55;104838;1258;73538;-49
2023/10/14 04:12:30;;;;;;;1.70;1.10;;;;;;;10.11;100.00;100289.77;104720;1254;60556;-49
2023/10/14 04:15:06;;;;;;;1.70;1.10;;;;;;;10.11;100.00;100289.23;104790;1259;60428;-49
2023/10/14 04:17:33;;;;;;;2.20;1.20;;;;;;;10.12;100.00;100286.64;104834;1259;74375;-49
2023/10/14 04:25:19;;;;;;;1.50;1.20;;;;;;;10.17;100.00;100285.41;104949;1265;62652;-48
2023/10/14 04:31:06;;;;;;;3.30;1.60;;;;;;;10.20;100.00;100286.56;109014;1257;72701;-50
2023/10/14 04:33:25;;;;;;;2.20;1.10;;;;;;;10.21;100.00;100289.19;108890;1254;66617;-50
2023/10/14 04:39:01;;;;;;;2.10;1.70;;;;;;;10.22;100.00;100289.17;108787;1253;58867;-50
2023/10/14 04:41:30;;;;;;;1.70;1.20;;;;;;;10.23;100.00;100287.36;109026;1254;60163;-50
2023/10/14 04:44:03;;;;;;;2.40;1.40;;;;;;;10.23;100.00;100285.38;108930;1254;74251;-49
2023/10/14 04:46:45;;;;;;;4.80;2.00;;;;;;;10.24;100.00;100284.43;109134;1254;66306;-49
2023/10/14 04:49:15;;;;;;;1.60;1.50;;;;;;;10.27;100.00;100277.73;108992;1254;71847;-49
2023/10/14 04:51:46;;;;;;;3.40;1.10;;;;;;;10.28;100.00;100274.60;108872;1259;174226;-50
2023/10/14 04:55:42;;;;;;;4.20;2.50;;;;;;;10.35;100.00;100286.54;101905;1291;600894;-49
2023/10/14 05:00:43;;;;;;;5.60;1.70;;;;;;;10.43;100.00;100279.58;108992;1255;61089;-51
2023/10/14 05:03:21;;;;;;;2.60;2.00;;;;;;;10.47;100.00;100278.14;108849;1255;72314;-48
2023/10/14 05:06:40;;;;;;;1.90;1.50;;;;;;;10.54;100.00;100280.06;108846;1259;67617;-49
2023/10/14 05:08:45;;;;;;;3.10;2.40;;;;;;;10.60;100.00;100286.09;105063;1260;199578;-50
2023/10/14 05:11:14;;;;;;;2.40;2.20;;;;;;;10.65;100.00;100279.75;106904;1251;61731;-50
2023/10/14 05:13:44;;;;;;;2.10;1.90;;;;;;;10.72;100.00;100279.33;104941;1257;59784;-53
2023/10/14 05:16:15;;;;;;;3.40;2.10;;;;;;;10.79;100.00;100281.34;104800;1258;72271;-50
2023/10/14 05:18:58;;;;;;;2.50;2.30;;;;;;;10.89;100.00;100282.55;105986;1257;66875;-51
2023/10/14 05:21:36;;;;;;;3.30;2.60;;;;;;;11.00;100.00;100285.15;104913;1262;70470;-48
2023/10/14 05:24:09;;;;;;;3.70;2.50;;;;;;;11.12;100.00;100278.55;107879;1257;60487;-48
2023/10/14 05:26:46;;;;;;;4.20;2.70;;;;;;;11.23;100.00;100273.02;104905;1252;60958;-50
2023/10/14 05:29:17;;;;;;;5.40;2.90;;;;;;;11.34;100.00;100261.39;109014;1251;71786;-50
2023/10/14 05:31:45;;;;;;;3.40;2.60;;;;;;;11.45;100.00;100257.52;107497;1256;67625;-48
2023/10/14 05:34:13;;;;;;;3.70;2.70;;;;;;;11.55;100.00;100250.45;109081;1251;73409;-50
2023/10/14 05:36:41;;;;;;;3.20;3.00;;;;;;;11.65;100.00;100248.73;109139;1251;58871;-50
2023/10/14 05:39:10;;;;;;;5.50;3.80;;;;;;;11.74;100.00;100241.69;108967;1254;58751;-49
2023/10/14 05:41:38;;;;;;;4.40;4.00;;;;;;;11.81;100.00;100238.88;109099;1254;72939;-49
2023/10/14 05:44:10;;;;;;;5.70;3.00;;;;;;;11.87;100.00;100238.05;108842;1254;66455;-51
2023/10/14 05:46:38;;;;;;;2.70;2.50;;;;;;;11.94;100.00;100240.44;106847;1257;72333;-47
2023/10/14 05:49:06;;;;;;;4.30;2.90;;;;;;;11.99;100.00;100239.45;105363;1255;60461;-48
2023/10/14 05:51:35;;;;;;;3.80;2.80;;;;;;;12.06;100.00;100235.54;106811;1259;60705;-49
2023/10/14 05:54:04;;;;;;;2.80;2.60;;;;;;;12.14;100.00;100233.53;106515;1257;73677;-49
2023/10/14 05:56:31;;;;;;;3.90;2.40;;;;;;;12.22;100.00;100236.59;109052;1253;67882;-50
2023/10/14 05:59:00;;;;;;;3.40;3.20;;;;;;;12.31;100.00;100234.73;108356;1257;71479;-49
2023/10/14 06:01:28;;;;;;;5.90;3.10;;;;;;;12.39;100.00;100240.29;106423;1253;60477;-47
2023/10/14 06:03:56;;;;;;;2.90;2.70;;;;;;;12.48;100.00;100240.92;105422;1255;60074;-50
2023/10/14 06:06:23;;;;;;;3.10;2.50;;;;;;;12.58;100.00;100237.04;105320;1257;71751;-51
2023/10/14 06:08:53;;;;;;;4.50;3.30;;;;;;;12.67;100.00;100240.33;108965;1252;66561;-51
2023/10/14 06:11:20;;;;;;;3.20;2.80;;;;;;;12.77;100.00;100244.15;106146;1254;73765;-49
2023/10/14 06:13:47;;;;;;;4.00;3.70;;;;;;;12.89;100.00;100245.39;104874;1260;60466;-47
2023/10/14 06:16:15;;;;;;;5.60;2.80;;;;;;;13.00;100.00;100240.85;104671;1254;59447;-48
2023/10/14 06:18:47;;;;;;;3.80;3.50;;;;;;;13.12;100.00;100242.23;105681;1256;72521;-50
2023/10/14 06:21:15;;;;;;;2.40;2.20;;;;;;;13.25;100.00;100242.66;104861;1253;66483;-49
2023/10/14 06:23:49;;;;;;;2.80;2.60;;;;;;;13.38;100.00;100242.18;104704;1259;72721;-50
2023/10/14 06:26:17;;;;;;;5.40;2.90;;;;;;;13.52;100.00;100246.30;104905;1254;60267;-50
2023/10/14 06:28:45;;;;;;;2.70;2.40;;;;;;;13.63;100.00;100248.05;107074;1253;62221;-48
2023/10/14 06:31:12;;;;;;;3.00;2.50;;;;;;;13.74;100.00;100252.54;109101;1256;71852;-52
2023/10/14 06:33:43;;;;;;;2.60;2.40;;;;;;;13.82;100.00;100248.33;109005;1254;65769;-49
2023/10/14 06:36:14;;;;;;;4.90;2.40;;;;;;;13.89;100.00;100246.64;106056;1254;72701;-48
2023/10/14 06:38:44;;;;;;;3.10;2.80;;;;;;;13.95;100.00;100245.95;104741;1255;60605;-50
2023/10/14 06:41:13;;;;;;;2.60;2.10;;;;;;;14.00;100.00;100241.02;104940;1252;60087;-49
2023/10/14 06:43:43;;;;;;;1.90;1.70;;;;;;;14.04;100.00;100237.73;104774;1254;71871;-50
2023/10/14 06:46:16;;;;;;;2.50;2.00;;;;;;;14.08;100.00;100240.73;105660;1257;66812;-49
2023/10/14 06:48:45;;;;;;;2.60;2.10;;;;;;;14.14;100.00;100241.66;106351;1254;71734;-49
2023/10/14 06:51:13;;;;;;;3.40;2.60;;;;;;;14.19;100.00;100241.20;108897;1254;60683;-52
2023/10/14 06:53:40;;;;;;;5.80;2.40;;;;;;;14.25;100.00;100247.38;105145;1260;60102;-49
2023/10/14 06:56:11;;;;;;;2.20;2.00;;;;;;;14.32;100.00;100246.79;104676;1260;73609;-50
2023/10/14 06:58:39;;;;;;;5.50;2.40;;;;;;;14.42;100.00;100243.91;108832;1257;65672;-50
2023/10/14 07:01:07;;;;;;;2.50;2.30;;;;;;;14.53;100.00;100246.20;106109;1256;71589;-50
2023/10/14 07:03:35;;;;;;;2.90;2.30;;;;;;;14.63;100.00;100248.31;105480;1260;60466;-50
2023/10/14 07:06:04;;;;;;;3.60;2.20;;;;;;;14.73;100.00;100249.01;104679;1256;60086;-50
2023/10/14 07:08:32;;;;;;;3.20;2.60;;;;;;;14.83;100.00;100239.56;108870;1254;73730;-51
2023/10/14 07:11:00;;;;;;;2.70;2.30;;;;;;;14.94;100.00;100241.48;106543;1254;67504;-50
2023/10/14 07:13:28;;;;;;;3.20;2.90;;;;;;;15.05;100.00;100239.54;105034;1257;71705;-49
2023/10/14 07:15:56;;;;;;;4.70;2.90;;;;;;;15.16;100.00;100237.08;104749;1261;60537;-50
2023/10/14 07:18:23;;;;;;;3.30;3.00;;;;;;;15.26;100.00;100235.61;104850;1254;61874;-50
2023/10/14 07:20:59;;;;;;;4.40;3.00;;;;;;;15.36;100.00;100238.95;105912;1258;72119;-52
2023/10/14 07:23:29;;;;;;;4.60;2.80;;;;;;;15.47;100.00;100242.23;108990;1254;66935;-50
2023/10/14 07:25:57;;;;;;;5.00;2.80;;;;;;;15.57;100.00;100243.71;108877;1254;73194;-50
2023/10/14 07:28:25;;;;;;;3.50;2.50;;;;;;;15.65;100.00;100237.77;108854;1257;61915;-51
2023/10/14 07:30:55;;;;;;;2.70;2.40;;;;;;;15.74;100.00;100228.89;108911;1257;60057;-52
2023/10/14 07:33:22;;;;;;;2.00;1.90;;;;;;;15.82;100.00;100230.38;108963;1254;73550;-51
2023/10/14 07:35:49;;;;;;;2.90;2.10;;;;;;;15.89;100.00;100229.40;108884;1254;70976;-49
2023/10/14 07:38:17;;;;;;;3.30;2.70;;;;;;;15.98;100.00;100229.37;109033;1259;71658;-52
2023/10/14 07:40:44;;;;;;;2.80;2.60;;;;;;;16.07;100.00;100230.02;108938;1254;61736;-51
2023/10/14 07:43:11;;;;;;;5.60;2.70;;;;;;;16.16;100.00;100229.27;108842;1257;58891;-51
2023/10/14 07:45:43;;;;;;;3.90;3.50;;;;;;;16.26;100.00;100226.64;108967;1254;73085;-51
2023/10/14 07:48:11;;;;;;;5.50;3.10;;;;;;;16.37;100.00;100227.05;108945;1254;66235;-50
2023/10/14 07:50:44;;;;;;;2.90;1.70;;;;;;;16.46;100.00;100223.15;108872;1254;74560;-51
2023/10/14 07:53:14;;;;;;;4.60;3.60;;;;;;;16.54;100.00;100220.07;108959;1254;59108;-51
2023/10/14 07:55:49;;;;;;;3.60;2.90;;;;;;;16.63;100.00;100221.55;108932;1259;60092;-52
2023/10/14 07:58:23;;;;;;;8.20;3.00;;;;;;;16.71;100.00;100215.59;108993;1256;73091;-51
2023/10/14 08:00:52;;;;;;;4.50;2.90;;;;;;;16.78;100.00;100214.57;108940;1254;67713;-51
2023/10/14 08:03:29;;;;;;;4.10;2.90;;;;;;;16.85;100.00;100217.91;108954;1254;71455;-51
2023/10/14 08:06:05;;;;;;;3.60;2.70;;;;;;;16.92;100.00;100214.33;109010;1254;60495;-51
2023/10/14 08:08:42;;;;;;;6.40;3.00;;;;;;;17.01;100.00;100208.48;108899;1256;60149;-52
2023/10/14 08:11:12;;;;;;;3.60;3.00;;;;;;;17.11;100.00;100206.91;108446;1260;73145;-51
2023/10/14 08:13:43;;;;;;;5.40;2.90;;;;;;;17.20;100.00;100203.39;108344;1259;66932;-51
2023/10/14 08:16:11;;;;;;;5.90;3.50;;;;;;;17.27;100.00;100205.94;106582;1258;73194;-51
2023/10/14 08:18:41;;;;;;;7.10;2.90;;;;;;;17.35;100.00;100207.20;104676;1256;59618;-50
2023/10/14 08:21:11;;;;;;;5.90;4.00;;;;;;;17.42;100.00;100206.38;105644;1259;59883;-53
2023/10/14 08:23:39;;;;;;;3.70;3.20;;;;;;;17.49;100.00;100202.63;105846;1259;71840;-51
2023/10/14 08:26:13;;;;;;;9.90;4.30;;;;;;;17.59;100.00;100199.61;104806;1259;66959;-52
2023/10/14 08:28:42;;;;;;;8.90;3.70;;;;;;;17.68;100.00;100196.77;104815;1254;72747;-51
2023/10/14 08:31:11;;;;;;;6.10;3.40;;;;;;;17.76;100.00;100198.43;106115;1259;62168;-51
2023/10/14 08:33:39;;;;;;;5.50;2.60;;;;;;;17.82;100.00;100198.36;106744;1259;59651;-53
2023/10/14 08:36:11;;;;;;;7.60;3.20;;;;;;;17.89;100.00;100190.39;104779;1254;71856;-50
2023/10/14 08:38:40;;;;;;;5.30;2.10;;;;;;;17.96;100.00;100184.79;104927;1254;65618;-51
2023/10/14 08:41:08;;;;;;;7.60;2.90;;;;;;;18.04;100.00;100186.95;104850;1260;72727;-51
2023/10/14 08:43:36;;;;;;;5.40;2.60;;;;;;;18.11;100.00;100183.68;104815;1257;59685;-52
2023/10/14 08:46:05;;;;;;;6.30;2.70;;;;;;;18.20;100.00;100179.44;104798;1256;59810;-51
2023/10/14 08:48:33;;;;;;;7.80;3.10;;;;;;;18.27;100.00;100181.63;104791;1254;71894;-53
2023/10/14 08:51:00;;;;;;;5.70;2.70;;;;;;;18.35;100.00;100182.51;104738;1253;67069;-51
2023/10/14 08:53:30;;;;;;;7.00;3.70;;;;;;;18.40;100.00;100180.08;104702;1259;73123;-52
2023/10/14 08:55:58;;;;;;;3.00;2.40;;;;;;;18.45;100.00;100182.80;104862;1254;60418;-53
2023/10/14 08:58:26;;;;;;;2.50;2.20;;;;;;;18.51;100.00;100185.10;107218;1256;58784;-53
2023/10/14 09:00:54;;;;;;;5.60;1.90;;;;;;;18.57;100.00;100185.79;105201;1253;71850;-52
2023/10/14 09:03:24;;;;;;;4.40;2.30;;;;;;;18.64;100.00;100182.73;105857;1255;66205;-53
2023/10/14 09:05:52;;;;;;;5.10;2.70;;;;;;;18.72;100.00;100175.21;105742;1259;72729;-52
2023/10/14 09:08:20;;;;;;;7.30;2.30;;;;;;;18.81;100.00;100171.42;104852;1254;60465;-52
2023/10/14 09:10:50;;;;;;;9.60;2.50;;;;;;;18.91;100.00;100168.80;105333;1256;60564;-52
2023/10/14 09:13:21;;;;;;;4.20;1.70;;;;;;;19.03;100.00;100168.11;104782;1254;72810;-53
2023/10/14 09:15:49;;;;;;;3.80;2.10;;;;;;;19.12;100.00;100163.56;104832;1258;67044;-51
2023/10/14 09:18:22;;;;;;;3.80;2.50;;;;;;;19.20;100.00;100164.17;107754;1256;71462;-51
2023/10/14 09:20:56;;;;;;;5.30;2.30;;;;;;;19.30;100.00;100160.52;104976;1256;60520;-51
2023/10/14 09:23:39;;;;;;;5.30;1.70;;;;;;;19.39;100.00;100159.44;104903;1259;61115;-51
2023/10/14 09:26:07;;;;;;;5.40;1.70;;;;;;;19.49;100.00;100161.42;106223;1256;75533;-52
2023/10/14 09:28:36;;;;;;;4.10;1.80;;;;;;;19.58;100.00;100155.61;104630;1254;65883;-52
2023/10/14 09:31:08;;;;;;;5.80;2.30;;;;;;;19.66;100.00;100152.62;104726;1253;72733;-51
2023/10/14 09:33:37;;;;;;;2.20;1.70;;;;;;;19.72;100.00;100146.85;105403;1256;60581;-49
2023/10/14 09:36:11;;;;;;;5.50;2.00;;;;;;;19.77;100.00;100141.34;104792;1259;60322;-51
2023/10/14 09:38:39;;;;;;;5.60;2.10;;;;;;;19.81;100.00;100142.67;105437;1256;74514;-51
2023/10/14 09:41:10;;;;;;;3.10;1.80;;;;;;;19.83;100.00;100144.30;108986;1259;66717;-52
2023/10/14 09:43:42;;;;;;;4.10;1.50;;;;;;;19.85;100.00;100141.06;105136;1260;72861;-49
2023/10/14 09:46:17;;;;;;;3.30;1.80;;;;;;;19.88;100.00;100143.57;104546;1256;60562;-52
2023/10/14 09:48:45;;;;;;;4.30;1.80;;;;;;;19.93;100.00;100138.22;107507;1254;58816;-51
2023/10/14 09:51:15;;;;;;;5.00;2.40;;;;;;;19.98;100.00;100130.89;109030;1254;72630;-52
2023/10/14 09:53:44;;;;;;;2.80;1.70;;;;;;;20.03;100.00;100130.34;105446;1261;65634;-50
2023/10/14 09:56:12;;;;;;;8.00;1.70;;;;;;;20.07;100.00;100131.32;105597;1256;71454;-51
2023/10/14 09:58:44;;;;;;;3.00;1.60;;;;;;;20.08;100.00;100131.73;104757;1257;60438;-50
2023/10/14 10:01:15;;;;;;;5.60;1.80;;;;;;;20.08;100.00;100132.10;106309;1256;60733;-51
2023/10/14 10:03:46;;;;;;;9.50;1.80;;;;;;;20.07;100.00;100132.75;106480;1256;72023;-51
2023/10/14 10:06:24;;;;;;;6.30;1.60;;;;;;;20.06;100.00;100130.09;104737;1256;65751;-50
2023/10/14 10:09:01;;;;;;;5.90;1.70;;;;;;;20.06;100.00;100122.41;104720;1257;72712;-51
2023/10/14 10:11:29;;;;;;;2.60;2.40;;;;;;;20.06;100.00;100112.95;104768;1254;61844;-50
2023/10/14 10:13:59;;;;;;;2.90;1.50;;;;;;;20.07;100.00;100109.02;104639;1254;60553;-52
2023/10/14 10:16:34;;;;;;;4.80;2.00;;;;;;;20.08;100.00;100109.86;104729;1254;72678;-53
2023/10/14 10:19:02;;;;;;;4.80;1.60;;;;;;;20.09;100.00;100105.96;108868;1254;67154;-53
2023/10/14 10:21:30;;;;;;;3.40;1.70;;;;;;;20.11;100.00;100110.86;106603;1259;72568;-51
2023/10/14 10:24:17;;;;;;;4.70;2.00;;;;;;;20.14;100.00;100108.98;108802;1253;60149;-52
2023/10/14 10:27:10;;;;;;;4.10;1.80;;;;;;;20.17;100.00;100107.45;108984;1254;60087;-54
2023/10/14 10:29:51;;;;;;;4.20;2.00;;;;;;;20.21;100.00;100105.31;108843;1253;74228;-53
2023/10/14 10:32:20;;;;;;;3.60;1.90;;;;;;;20.24;100.00;100102.33;109064;1253;67474;-52
2023/10/14 10:35:10;;;;;;;2.40;2.10;;;;;;;20.26;100.00;100097.20;108947;1257;72711;-52
2023/10/14 10:37:48;;;;;;;6.70;1.80;;;;;;;20.30;100.00;100092.76;108863;1254;60177;-54
2023/10/14 10:40:25;;;;;;;7.20;2.60;;;;;;;20.33;100.00;100089.38;108877;1253;59821;-51
2023/10/14 10:43:06;;;;;;;3.50;1.60;;;;;;;20.35;100.00;100091.55;108931;1253;74427;-53
2023/10/14 10:45:34;;;;;;;5.80;2.10;;;;;;;20.38;100.00;100085.19;108939;1253;65832;-52
2023/10/14 10:48:05;;;;;;;2.60;1.70;;;;;;;20.42;100.00;100083.23;108718;1256;73215;-51
2023/10/14 10:50:37;;;;;;;5.90;2.20;;;;;;;20.47;100.00;100078.08;109016;1253;60166;-51
2023/10/14 10:53:08;;;;;;;5.50;1.80;;;;;;;20.50;100.00;100074.65;108982;1253;59125;-52
2023/10/14 10:55:38;;;;;;;3.30;2.10;;;;;;;20.54;100.00;100068.48;108858;1255;74448;-52
2023/10/14 10:58:08;;;;;;;2.40;1.70;;;;;;;20.59;100.00;100068.30;108924;1253;66977;-52
2023/10/14 11:00:38;;;;;;;7.90;1.80;;;;;;;20.62;100.00;100063.45;108884;1253;73134;-52
2023/10/14 11:03:06;;;;;;;5.20;1.80;;;;;;;20.66;100.00;100062.52;108874;1253;61743;-53
2023/10/14 11:05:33;;;;;;;3.10;1.80;;;;;;;20.71;100.00;100057.77;108892;1253;60087;-53
2023/10/14 11:08:03;;;;;;;4.50;1.80;;;;;;;20.75;100.00;100056.27;108635;1254;74180;-54
2023/10/14 11:10:33;;;;;;;4.80;1.40;;;;;;;20.81;100.00;100057.80;108584;1255;66916;-52
2023/10/14 11:13:01;;;;;;;5.40;1.70;;;;;;;20.86;100.00;100057.57;108926;1256;71630;-53
2023/10/14 11:15:31;;;;;;;3.90;1.40;;;;;;;20.90;100.00;100056.65;108919;1256;60571;-52
2023/10/14 11:18:00;;;;;;;2.60;1.20;;;;;;;20.95;100.00;100059.64;108868;1254;60558;-52
2023/10/14 11:20:28;;;;;;;7.80;1.40;;;;;;;20.99;100.00;100049.84;108081;1256;72567;-51
2023/10/14 11:22:56;;;;;;;5.00;1.60;;;;;;;21.03;100.00;100050.36;108772;1256;66753;-53
2023/10/14 11:25:23;;;;;;;5.00;1.50;;;;;;;21.08;100.00;100050.70;105948;1256;72657;-51
2023/10/14 11:27:54;;;;;;;1.80;1.30;;;;;;;21.10;100.00;100046.64;104851;1257;60526;-51
2023/10/14 11:30:27;;;;;;;2.70;1.70;;;;;;;21.13;100.00;100043.88;104645;1254;60583;-50
2023/10/14 11:32:58;;;;;;;5.40;1.30;;;;;;;21.14;100.00;100045.19;106776;1255;74352;-51
2023/10/14 11:35:29;;;;;;;2.20;0.90;;;;;;;21.18;100.00;100049.12;105380;1253;67640;-51
2023/10/14 11:38:00;;;;;;;2.20;1.40;;;;;;;21.21;100.00;100048.68;104848;1259;73328;-50
2023/10/14 11:40:40;;;;;;;2.10;1.20;;;;;;;21.24;100.00;100040.61;104892;1259;60588;-52
2023/10/14 11:43:11;;;;;;;2.80;1.30;;;;;;;21.27;100.00;100035.42;106416;1254;61638;-52
2023/10/14 11:45:45;;;;;;;2.20;1.60;;;;;;;21.30;100.00;100034.76;104891;1256;74413;-52
2023/10/14 11:48:43;;;;;;;3.40;1.30;;;;;;;21.33;100.00;100031.91;104940;1254;65088;-50
2023/10/14 11:51:14;;;;;;;1.50;1.10;;;;;;;21.35;100.00;100029.15;104895;1255;72774;-53
2023/10/14 11:53:43;;;;;;;2.60;1.30;;;;;;;21.36;100.00;100026.14;104713;1257;61210;-51
2023/10/14 11:56:13;;;;;;;3.00;1.40;;;;;;;21.33;100.00;100016.38;108404;1254;59568;-52
2023/10/14 11:58:41;;;;;;;1.70;1.10;;;;;;;21.31;100.00;100018.04;105800;1259;72683;-51
2023/10/14 12:01:09;;;;;;;5.40;1.10;;;;;;;21.28;100.00;100015.20;104795;1257;67155;-51
2023/10/14 12:03:37;;;;;;;1.10;0.90;;;;;;;21.25;100.00;100012.38;105058;1257;71787;-52
2023/10/14 12:06:07;;;;;;;3.50;0.90;;;;;;;21.22;100.00;100009.13;105280;1256;60668;-53
2023/10/14 12:08:38;;;;;;;4.30;1.20;;;;;;;21.21;100.00;100010.41;104959;1259;60513;-50
2023/10/14 12:11:08;;;;;;;2.80;1.60;;;;;;;21.19;100.00;100010.73;104935;1253;72691;-51